createdAt,value
2017-11-14T00:00:08.332Z,94.86
2017-11-14T00:02:36.642Z,94.94
2017-11-14T00:05:04.983Z,94.04
2017-11-14T00:07:33.270Z,94.43
2017-11-14T00:10:02.318Z,94.20
2017-11-14T00:12:30.597Z,94.25
2017-11-14T00:14:58.922Z,94.84
2017-11-14T00:17:27.205Z,95.08
2017-11-14T00:19:55.490Z,95.30
2017-11-14T00:22:23.790Z,95.10
2017-11-14T00:24:52.123Z,94.67
2017-11-14T00:27:20.421Z,93.78
2017-11-14T00:29:48.705Z,93.68
2017-11-14T00:32:16.985Z,93.23
2017-11-14T00:34:45.269Z,93.31
2017-11-14T00:37:13.563Z,94.48
2017-11-14T00:39:41.853Z,93.92
2017-11-14T00:42:10.150Z,93.98
2017-11-14T00:44:38.439Z,93.92
2017-11-14T00:47:06.742Z,94.48
2017-11-14T00:49:35.034Z,94.66
2017-11-14T00:52:03.317Z,95.04
2017-11-14T00:54:31.601Z,94.99
2017-11-14T00:56:59.897Z,94.71
2017-11-14T00:59:28.236Z,94.21
2017-11-14T01:01:56.523Z,93.83
2017-11-14T01:04:25.934Z,93.34
2017-11-14T01:06:54.217Z,92.63
2017-11-14T01:09:22.510Z,92.52
2017-11-14T01:11:50.801Z,91.71
2017-11-14T01:14:19.858Z,91.73
2017-11-14T01:16:48.150Z,91.86
2017-11-14T01:19:16.461Z,91.76
2017-11-14T01:21:44.750Z,91.72
2017-11-14T01:24:13.029Z,92.12
2017-11-14T01:26:41.910Z,93.70
2017-11-14T01:29:10.197Z,95.10
2017-11-14T01:31:38.480Z,96.50
2017-11-14T01:34:06.765Z,96.33
2017-11-14T01:36:35.048Z,95.40
2017-11-14T01:39:03.362Z,95.59
2017-11-14T01:41:32.418Z,95.00
2017-11-14T01:44:00.706Z,94.88
2017-11-14T01:46:28.984Z,95.33
2017-11-14T01:48:57.578Z,95.10
2017-11-14T01:51:26.437Z,94.76
2017-11-14T01:53:55.202Z,94.02
2017-11-14T01:56:23.484Z,93.35
2017-11-14T01:58:51.778Z,93.08
2017-11-14T02:01:20.066Z,93.21
2017-11-14T02:03:48.362Z,92.94
2017-11-14T02:06:16.657Z,92.47
2017-11-14T02:08:45.705Z,92.71
2017-11-14T02:11:13.989Z,93.94
2017-11-14T02:13:42.281Z,93.86
2017-11-14T02:16:10.570Z,93.00
2017-11-14T02:18:38.875Z,93.51
2017-11-14T02:21:08.052Z,93.11
2017-11-14T02:23:36.386Z,93.16
2017-11-14T02:26:04.677Z,92.60
2017-11-14T02:28:32.977Z,92.70
2017-11-14T02:31:02.030Z,92.67
2017-11-14T02:33:30.315Z,93.09
2017-11-14T02:35:58.593Z,92.70
2017-11-14T02:38:26.882Z,93.46
2017-11-14T02:40:55.164Z,94.00
2017-11-14T02:43:23.453Z,93.97
2017-11-14T02:45:52.518Z,94.37
2017-11-14T02:48:20.801Z,93.63
2017-11-14T02:50:49.081Z,93.80
2017-11-14T02:53:17.365Z,93.50
2017-11-14T02:55:45.659Z,93.00
2017-11-14T02:58:13.942Z,93.37
2017-11-14T03:00:42.227Z,94.08
2017-11-14T03:03:10.507Z,93.16
2017-11-14T03:05:38.797Z,92.56
2017-11-14T03:08:07.083Z,92.08
2017-11-14T03:10:35.421Z,93.61
2017-11-14T03:13:04.490Z,93.07
2017-11-14T03:15:32.779Z,93.30
2017-11-14T03:18:02.506Z,93.35
2017-11-14T03:20:31.598Z,92.45
2017-11-14T03:23:00.650Z,92.59
2017-11-14T03:25:29.007Z,91.92
2017-11-14T03:27:57.310Z,92.00
2017-11-14T03:30:25.615Z,92.06
2017-11-14T03:32:53.903Z,92.36
2017-11-14T03:35:23.138Z,91.99
2017-11-14T03:37:51.413Z,91.81
2017-11-14T03:40:19.724Z,91.75
2017-11-14T03:42:48.014Z,92.29
2017-11-14T03:45:17.083Z,93.72
2017-11-14T03:47:45.406Z,93.79
2017-11-14T03:50:14.478Z,93.33
2017-11-14T03:52:42.803Z,93.18
2017-11-14T03:55:11.082Z,94.19
2017-11-14T03:57:39.365Z,93.30
2017-11-14T04:00:07.689Z,93.54
2017-11-14T04:02:36.041Z,92.84
2017-11-14T04:05:04.338Z,93.46
2017-11-14T04:07:32.623Z,93.79
2017-11-14T04:10:00.929Z,94.02
2017-11-14T04:12:29.238Z,93.33
2017-11-14T04:14:57.521Z,92.74
2017-11-14T04:17:25.821Z,92.33
2017-11-14T04:19:54.115Z,93.29
2017-11-14T04:22:22.413Z,94.20
2017-11-14T04:24:50.705Z,93.98
2017-11-14T04:27:18.993Z,94.15
2017-11-14T04:29:47.298Z,94.13
2017-11-14T04:32:15.641Z,96.00
2017-11-14T04:34:43.923Z,95.19
2017-11-14T04:37:12.210Z,94.51
2017-11-14T04:39:40.493Z,94.39
2017-11-14T04:42:08.781Z,93.57
2017-11-14T04:44:37.081Z,93.19
2017-11-14T04:47:05.370Z,92.21
2017-11-14T04:49:34.606Z,92.42
2017-11-14T04:52:02.901Z,92.64
2017-11-14T04:54:31.180Z,93.34
2017-11-14T04:56:59.461Z,92.60
2017-11-14T04:59:27.749Z,92.25
2017-11-14T05:01:56.840Z,93.01
2017-11-14T05:04:25.118Z,92.55
2017-11-14T05:06:54.171Z,92.14
2017-11-14T05:09:22.467Z,91.93
2017-11-14T05:11:50.762Z,91.39
2017-11-14T05:14:19.080Z,91.50
2017-11-14T05:16:47.974Z,92.57
2017-11-14T05:19:16.284Z,92.42
2017-11-14T05:21:44.593Z,92.33
2017-11-14T05:24:12.873Z,92.46
2017-11-14T05:26:41.157Z,92.46
2017-11-14T05:29:09.447Z,92.15
2017-11-14T05:31:44.714Z,92.18
2017-11-14T05:34:13.029Z,92.65
2017-11-14T05:36:42.063Z,92.57
2017-11-14T05:39:10.340Z,92.24
2017-11-14T05:41:38.635Z,92.45
2017-11-14T05:44:06.909Z,93.55
2017-11-14T05:46:35.201Z,94.19
2017-11-14T05:49:03.492Z,93.74
2017-11-14T05:51:31.783Z,94.25
2017-11-14T05:54:00.068Z,93.70
2017-11-14T05:56:29.110Z,93.85
2017-11-14T05:58:57.419Z,94.03
2017-11-14T06:01:25.719Z,93.55
2017-11-14T06:03:54.041Z,93.38
2017-11-14T06:06:22.326Z,93.18
2017-11-14T06:08:50.629Z,92.65
2017-11-14T06:11:19.733Z,92.44
2017-11-14T06:13:48.368Z,93.08
2017-11-14T06:16:16.658Z,92.51
2017-11-14T06:18:44.974Z,92.98
2017-11-14T06:21:13.276Z,92.30
2017-11-14T06:23:41.575Z,91.42
2017-11-14T06:26:10.050Z,92.92
2017-11-14T06:28:38.342Z,93.21
2017-11-14T06:31:06.628Z,92.90
2017-11-14T06:33:36.628Z,93.12
2017-11-14T06:36:04.913Z,93.20
2017-11-14T06:38:33.196Z,93.84
2017-11-14T06:41:01.490Z,93.20
2017-11-14T06:43:29.781Z,92.94
2017-11-14T06:45:58.854Z,92.70
2017-11-14T06:48:27.120Z,92.44
2017-11-14T06:50:55.713Z,91.87
2017-11-14T06:53:23.989Z,91.52
2017-11-14T06:55:52.289Z,90.99
2017-11-14T06:58:21.341Z,91.50
2017-11-14T07:00:49.645Z,92.09
2017-11-14T07:03:17.929Z,92.12
2017-11-14T07:05:46.255Z,92.08
2017-11-14T07:08:14.530Z,92.10
2017-11-14T07:10:42.826Z,93.26
2017-11-14T07:13:11.113Z,94.34
2017-11-14T07:15:40.641Z,94.13
2017-11-14T07:18:08.961Z,94.39
2017-11-14T07:20:37.249Z,95.11
2017-11-14T07:23:05.555Z,95.67
2017-11-14T07:25:33.837Z,96.02
2017-11-14T07:28:02.117Z,96.00
2017-11-14T07:30:30.401Z,95.45
2017-11-14T07:32:58.686Z,95.54
2017-11-14T07:35:27.517Z,95.07
2017-11-14T07:37:55.836Z,94.03
2017-11-14T07:40:24.154Z,94.13
2017-11-14T07:42:52.445Z,93.39
2017-11-14T07:45:20.741Z,92.97
2017-11-14T07:47:49.043Z,92.54
2017-11-14T07:50:17.330Z,92.31
2017-11-14T07:52:46.402Z,92.07
2017-11-14T07:55:14.732Z,91.55
2017-11-14T07:57:43.017Z,92.31
2017-11-14T08:00:11.312Z,92.10
2017-11-14T08:02:39.598Z,92.00
2017-11-14T08:05:07.955Z,91.47
2017-11-14T08:07:36.242Z,90.86
2017-11-14T08:10:04.532Z,90.63
2017-11-14T08:12:32.846Z,90.62
2017-11-14T08:15:01.178Z,90.62
2017-11-14T08:17:29.481Z,90.70
2017-11-14T08:19:57.787Z,90.10
2017-11-14T08:22:26.082Z,90.85
2017-11-14T08:24:55.160Z,90.62
2017-11-14T08:27:24.207Z,90.40
2017-11-14T08:29:52.489Z,90.41
2017-11-14T08:32:21.213Z,90.50
2017-11-14T08:34:50.253Z,90.48
2017-11-14T08:37:18.541Z,90.11
2017-11-14T08:39:46.827Z,89.83
2017-11-14T08:42:15.137Z,89.85
2017-11-14T08:44:43.426Z,89.59
2017-11-14T08:47:11.730Z,91.50
2017-11-14T08:49:40.030Z,91.93
2017-11-14T08:52:08.314Z,91.03
2017-11-14T08:54:36.609Z,90.54
2017-11-14T08:57:05.666Z,90.80
2017-11-14T08:59:34.116Z,90.11
2017-11-14T09:02:03.498Z,89.42
2017-11-14T09:04:31.986Z,88.81
2017-11-14T09:07:00.258Z,88.63
2017-11-14T09:09:28.614Z,88.48
2017-11-14T09:11:57.670Z,88.22
2017-11-14T09:14:26.009Z,87.89
2017-11-14T09:16:54.300Z,88.48
2017-11-14T09:19:22.679Z,88.47
2017-11-14T09:21:51.061Z,88.30
2017-11-14T09:24:19.374Z,87.88
2017-11-14T09:26:48.565Z,87.73
2017-11-14T09:29:17.027Z,87.26
2017-11-14T09:31:45.435Z,86.85
2017-11-14T09:34:13.806Z,86.61
2017-11-14T09:36:42.966Z,86.42
2017-11-14T09:39:11.274Z,85.77
2017-11-14T09:41:39.603Z,86.40
2017-11-14T09:44:07.888Z,87.74
2017-11-14T09:46:36.292Z,86.33
2017-11-14T09:49:04.658Z,85.94
2017-11-14T09:51:33.082Z,85.97
2017-11-14T09:54:01.571Z,84.45
2017-11-14T09:56:30.029Z,84.51
2017-11-14T09:58:58.376Z,84.39
2017-11-14T10:01:26.713Z,85.37
2017-11-14T10:03:55.003Z,84.99
2017-11-14T10:06:23.320Z,83.87
2017-11-14T10:08:51.633Z,82.29
2017-11-14T10:11:19.914Z,82.74
2017-11-14T10:13:49.377Z,82.66
2017-11-14T10:16:17.665Z,82.23
2017-11-14T10:18:45.941Z,81.99
2017-11-14T10:21:14.234Z,83.56
2017-11-14T10:23:42.526Z,82.56
2017-11-14T10:26:11.577Z,82.19
2017-11-14T10:28:39.881Z,80.77
2017-11-14T10:31:08.153Z,80.92
2017-11-14T10:33:36.434Z,81.32
2017-11-14T10:36:04.730Z,81.78
2017-11-14T10:38:33.787Z,82.26
2017-11-14T10:41:02.066Z,81.88
2017-11-14T10:43:30.370Z,82.36
2017-11-14T10:45:58.787Z,82.37
2017-11-14T10:48:27.078Z,81.78
2017-11-14T10:50:55.374Z,81.86
2017-11-14T10:53:23.658Z,80.30
2017-11-14T10:55:51.959Z,80.92
2017-11-14T10:58:20.262Z,80.72
2017-11-14T11:00:48.547Z,80.77
2017-11-14T11:03:16.847Z,80.59
2017-11-14T11:05:45.150Z,80.90
2017-11-14T11:08:13.451Z,80.38
2017-11-14T11:10:41.754Z,80.23
2017-11-14T11:13:10.039Z,79.95
2017-11-14T11:15:38.345Z,81.49
2017-11-14T11:18:06.663Z,81.34
2017-11-14T11:20:35.779Z,80.94
2017-11-14T11:23:04.065Z,81.43
2017-11-14T11:25:32.341Z,82.09
2017-11-14T11:28:00.940Z,81.15
2017-11-14T11:30:30.007Z,82.34
2017-11-14T11:32:58.539Z,81.74
2017-11-14T11:35:26.958Z,80.84
2017-11-14T11:37:56.337Z,80.72
2017-11-14T11:40:25.392Z,81.40
2017-11-14T11:42:53.674Z,81.55
2017-11-14T11:45:21.970Z,81.17
2017-11-14T11:47:50.502Z,81.95
2017-11-14T11:50:18.850Z,82.03
2017-11-14T11:52:47.914Z,82.33
2017-11-14T11:55:16.255Z,82.45
2017-11-14T11:57:44.627Z,81.74
2017-11-14T12:00:13.202Z,81.56
2017-11-14T12:02:41.525Z,82.12
2017-11-14T12:05:09.830Z,82.12
2017-11-14T12:07:38.117Z,82.14
2017-11-14T12:10:07.179Z,83.28
2017-11-14T12:12:35.522Z,85.01
2017-11-14T12:15:03.827Z,83.22
2017-11-14T12:17:32.109Z,84.01
2017-11-14T12:20:01.679Z,83.49
2017-11-14T12:22:29.980Z,83.46
2017-11-14T12:24:58.256Z,82.96
2017-11-14T12:27:26.550Z,81.81
2017-11-14T12:29:55.249Z,81.82
2017-11-14T12:32:23.524Z,82.03
2017-11-14T12:34:51.814Z,81.40
2017-11-14T12:37:20.864Z,82.17
2017-11-14T12:39:49.153Z,82.62
2017-11-14T12:42:17.443Z,82.29
2017-11-14T12:44:45.743Z,82.54
2017-11-14T12:47:14.030Z,82.74
2017-11-14T12:49:42.326Z,82.97
2017-11-14T12:52:10.614Z,83.07
2017-11-14T12:54:38.909Z,82.53
2017-11-14T12:57:07.201Z,83.88
2017-11-14T12:59:35.483Z,83.90
2017-11-14T13:02:04.708Z,83.37
2017-11-14T13:04:33.003Z,83.91
2017-11-14T13:07:01.290Z,83.91
2017-11-14T13:09:29.591Z,83.42
2017-11-14T13:11:57.882Z,83.85
2017-11-14T13:14:26.174Z,83.58
2017-11-14T13:16:55.222Z,83.76
2017-11-14T13:19:23.534Z,83.13
2017-11-14T13:21:52.590Z,82.60
2017-11-14T13:24:20.886Z,81.76
2017-11-14T13:26:49.171Z,81.67
2017-11-14T13:29:17.458Z,81.37
2017-11-14T13:31:45.750Z,81.98
2017-11-14T13:34:14.054Z,82.83
2017-11-14T13:36:43.067Z,82.46
2017-11-14T13:39:11.382Z,81.49
2017-11-14T13:41:40.442Z,82.11
2017-11-14T13:44:08.730Z,81.76
2017-11-14T13:46:37.022Z,81.77
2017-11-14T13:49:05.353Z,81.66
2017-11-14T13:51:33.634Z,81.99
2017-11-14T13:54:01.913Z,81.72
2017-11-14T13:56:30.200Z,81.80
2017-11-14T13:58:58.477Z,81.19
2017-11-14T14:01:26.761Z,80.77
2017-11-14T14:03:55.029Z,80.27
2017-11-14T14:06:23.324Z,80.29
2017-11-14T14:08:51.626Z,80.01
2017-11-14T14:11:19.920Z,78.99
2017-11-14T14:13:48.210Z,78.52
2017-11-14T14:16:17.867Z,77.88
2017-11-14T14:18:46.191Z,76.14
2017-11-14T14:21:14.487Z,75.85
2017-11-14T14:23:42.783Z,75.50
2017-11-14T14:26:11.078Z,74.32
2017-11-14T14:28:39.395Z,74.77
2017-11-14T14:31:07.696Z,76.03
2017-11-14T14:33:35.986Z,75.75
2017-11-14T14:36:04.272Z,76.68
2017-11-14T14:38:32.567Z,76.15
2017-11-14T14:41:01.640Z,77.28
2017-11-14T14:43:29.926Z,77.99
2017-11-14T14:45:58.249Z,77.02
2017-11-14T14:48:26.528Z,76.97
2017-11-14T14:50:54.809Z,76.63
2017-11-14T14:53:23.110Z,77.86
2017-11-14T14:55:51.434Z,78.40
2017-11-14T14:58:20.505Z,78.26
2017-11-14T15:00:48.785Z,78.94
2017-11-14T15:03:17.075Z,79.42
2017-11-14T15:05:46.131Z,79.15
2017-11-14T15:08:14.426Z,79.66
2017-11-14T15:10:42.716Z,79.81
2017-11-14T15:13:11.771Z,80.61
2017-11-14T15:15:40.068Z,79.77
2017-11-14T15:18:08.358Z,79.74
2017-11-14T15:20:36.658Z,79.80
2017-11-14T15:23:04.940Z,80.21
2017-11-14T15:25:33.251Z,80.74
2017-11-14T15:28:01.528Z,80.69
2017-11-14T15:30:29.800Z,81.11
2017-11-14T15:32:58.097Z,81.00
2017-11-14T15:35:26.382Z,80.80
2017-11-14T15:37:54.681Z,80.70
2017-11-14T15:40:23.722Z,81.03
2017-11-14T15:42:52.018Z,80.71
2017-11-14T15:45:20.309Z,80.90
2017-11-14T15:47:48.599Z,80.92
2017-11-14T15:50:16.898Z,80.87
2017-11-14T15:52:45.178Z,81.29
2017-11-14T15:55:14.638Z,81.23
2017-11-14T15:57:42.929Z,80.81
2017-11-14T16:00:11.222Z,81.06
2017-11-14T16:02:40.303Z,82.12
2017-11-14T16:05:08.601Z,82.99
2017-11-14T16:07:36.883Z,82.49
2017-11-14T16:10:05.173Z,82.96
2017-11-14T16:12:33.450Z,82.60
2017-11-14T16:15:01.746Z,83.21
2017-11-14T16:17:30.032Z,83.00
2017-11-14T16:19:58.344Z,83.14
2017-11-14T16:22:26.621Z,82.83
2017-11-14T16:24:55.672Z,82.84
2017-11-14T16:27:23.960Z,83.27
2017-11-14T16:29:52.269Z,83.54
2017-11-14T16:32:21.330Z,82.84
2017-11-14T16:34:50.315Z,82.46
2017-11-14T16:37:18.611Z,82.58
2017-11-14T16:39:46.903Z,82.97
2017-11-14T16:42:15.198Z,83.48
2017-11-14T16:44:43.478Z,83.66
2017-11-14T16:47:11.786Z,83.07
2017-11-14T16:49:40.067Z,83.05
2017-11-14T16:52:08.358Z,82.72
2017-11-14T16:54:36.658Z,83.05
2017-11-14T16:57:04.963Z,83.14
2017-11-14T16:59:33.245Z,83.24
2017-11-14T17:02:01.554Z,83.29
2017-11-14T17:04:29.843Z,83.34
2017-11-14T17:06:58.143Z,83.01
2017-11-14T17:09:27.204Z,82.28
2017-11-14T17:11:55.482Z,83.22
2017-11-14T17:14:23.770Z,82.78
2017-11-14T17:16:52.059Z,82.42
2017-11-14T17:19:20.356Z,83.83
2017-11-14T17:21:48.647Z,83.68
2017-11-14T17:24:16.941Z,83.56
2017-11-14T17:26:46.234Z,84.92
2017-11-14T17:29:14.528Z,84.47
2017-11-14T17:31:42.820Z,84.81
2017-11-14T17:34:11.114Z,86.00
2017-11-14T17:36:40.238Z,85.04
2017-11-14T17:39:08.559Z,85.37
2017-11-14T17:41:36.845Z,85.45
2017-11-14T17:44:05.137Z,85.46
2017-11-14T17:46:33.502Z,85.63
2017-11-14T17:49:01.799Z,85.57
2017-11-14T17:51:30.186Z,85.32
2017-11-14T17:53:58.661Z,85.77
2017-11-14T17:56:27.514Z,86.06
2017-11-14T17:58:55.961Z,86.45
2017-11-14T18:01:24.284Z,87.00
2017-11-14T18:03:52.569Z,86.81
2017-11-14T18:06:21.856Z,86.50
2017-11-14T18:08:50.230Z,86.67
2017-11-14T18:11:18.694Z,87.18
2017-11-14T18:13:47.560Z,86.78
2017-11-14T18:16:16.570Z,86.58
2017-11-14T18:18:47.544Z,87.13
2017-11-14T18:21:16.114Z,87.06
2017-11-14T18:23:45.674Z,87.29
2017-11-14T18:26:15.031Z,87.85
2017-11-14T18:28:44.538Z,88.02
2017-11-14T18:31:14.086Z,88.24
2017-11-14T18:33:43.177Z,88.20
2017-11-14T18:36:12.698Z,88.57
2017-11-14T18:38:43.484Z,89.00
2017-11-14T18:41:13.377Z,89.36
2017-11-14T18:43:42.316Z,88.74
2017-11-14T18:46:11.759Z,88.83
2017-11-14T18:48:40.727Z,88.57
2017-11-14T18:51:09.978Z,88.65
2017-11-14T18:53:39.943Z,89.11
2017-11-14T18:56:09.848Z,89.16
2017-11-14T18:58:39.636Z,89.08
2017-11-14T19:01:09.456Z,88.68
2017-11-14T19:03:39.209Z,88.76
2017-11-14T19:06:09.059Z,88.68
2017-11-14T19:08:38.910Z,88.66
2017-11-14T19:11:08.638Z,88.19
2017-11-14T19:13:38.405Z,88.44
2017-11-14T19:16:08.209Z,87.80
2017-11-14T19:18:38.423Z,88.06
2017-11-14T19:21:08.287Z,88.35
2017-11-14T19:23:38.154Z,88.67
2017-11-14T19:26:08.059Z,87.64
2017-11-14T19:28:37.970Z,87.47
2017-11-14T19:31:07.882Z,87.18
2017-11-14T19:33:37.749Z,86.79
2017-11-14T19:36:07.607Z,87.48
2017-11-14T19:38:37.593Z,87.31
2017-11-14T19:41:08.229Z,87.59
2017-11-14T19:43:38.038Z,87.49
2017-11-14T19:46:08.694Z,87.59
2017-11-14T19:48:38.603Z,86.78
2017-11-14T19:51:08.555Z,86.77
2017-11-14T19:53:38.442Z,86.78
2017-11-14T19:56:08.342Z,86.74
2017-11-14T19:58:38.255Z,86.99
2017-11-14T20:01:08.719Z,87.34
2017-11-14T20:03:38.610Z,87.28
2017-11-14T20:06:08.455Z,87.30
2017-11-14T20:08:38.366Z,87.00
2017-11-14T20:11:08.445Z,86.72
2017-11-14T20:13:38.376Z,86.30
2017-11-14T20:16:08.462Z,86.46
2017-11-14T20:18:39.138Z,85.80
2017-11-14T20:21:09.230Z,86.07
2017-11-14T20:23:39.241Z,86.36
2017-11-14T20:26:09.153Z,87.31
2017-11-14T20:28:39.055Z,87.65
2017-11-14T20:31:09.047Z,88.11
2017-11-14T20:33:38.885Z,87.86
2017-11-14T20:36:08.745Z,87.70
2017-11-14T20:38:38.627Z,87.99
2017-11-14T20:41:08.485Z,88.00
2017-11-14T20:43:38.335Z,88.33
2017-11-14T20:49:08.290Z,87.64
2017-11-14T20:51:38.225Z,87.55
2017-11-14T20:54:08.027Z,87.54
2017-11-14T20:56:37.839Z,87.45
2017-11-14T20:59:08.595Z,86.72
2017-11-14T21:01:38.373Z,87.38
2017-11-14T21:04:08.206Z,87.44
2017-11-14T21:06:38.152Z,87.62
2017-11-14T21:09:07.958Z,88.09
2017-11-14T21:11:38.229Z,88.08
2017-11-14T21:14:08.127Z,87.75
2017-11-14T21:16:38.731Z,87.57
2017-11-14T21:19:08.769Z,87.78
2017-11-14T21:21:39.363Z,87.83
2017-11-14T21:24:09.242Z,87.71
2017-11-14T21:26:39.076Z,87.24
2017-11-14T21:29:08.947Z,88.87
2017-11-14T21:31:39.529Z,88.34
2017-11-14T21:34:09.358Z,87.93
2017-11-14T21:36:39.383Z,87.51
2017-11-14T21:39:09.153Z,87.76
2017-11-14T21:41:38.877Z,87.41
2017-11-14T21:44:08.673Z,87.15
2017-11-14T21:46:38.407Z,86.93
2017-11-14T21:49:08.799Z,86.29
2017-11-14T21:51:38.503Z,86.30
2017-11-14T21:54:08.269Z,86.07
2017-11-14T21:56:37.995Z,86.09
2017-11-14T21:59:07.690Z,86.16
2017-11-14T22:01:37.039Z,86.71
2017-11-14T22:04:05.432Z,86.95
2017-11-14T22:06:35.205Z,87.10
2017-11-14T22:09:03.533Z,86.77
2017-11-14T22:11:31.822Z,86.37
2017-11-14T22:14:00.123Z,86.73
2017-11-14T22:16:28.405Z,87.51
2017-11-14T22:18:56.703Z,87.56
2017-11-14T22:21:24.990Z,87.13
2017-11-14T22:23:53.264Z,86.81
2017-11-14T22:26:21.843Z,87.04
2017-11-14T22:28:50.213Z,86.98
2017-11-14T22:31:18.496Z,87.20
2017-11-14T22:33:46.765Z,87.32
2017-11-14T22:36:15.050Z,87.80
2017-11-14T22:38:43.333Z,88.61
2017-11-14T22:41:11.617Z,88.86
2017-11-14T22:43:39.882Z,88.90
2017-11-14T22:46:08.168Z,88.98
2017-11-14T22:48:36.815Z,90.13
2017-11-14T22:51:05.104Z,89.72
2017-11-14T22:53:33.383Z,89.63
2017-11-14T22:56:01.663Z,89.51
2017-11-14T22:58:29.938Z,89.27
2017-11-14T23:00:58.205Z,89.24
2017-11-14T23:03:26.463Z,89.81
2017-11-14T23:05:54.727Z,90.48
2017-11-14T23:08:25.465Z,90.22
2017-11-14T23:10:53.797Z,89.90
2017-11-14T23:13:22.081Z,89.73
2017-11-14T23:15:50.446Z,89.69
2017-11-14T23:18:18.782Z,89.53
2017-11-14T23:20:47.070Z,89.16
2017-11-14T23:23:16.837Z,89.44
2017-11-14T23:25:45.123Z,89.89
2017-11-14T23:28:13.408Z,90.27
2017-11-14T23:30:41.717Z,89.67
2017-11-14T23:33:10.002Z,89.78
2017-11-14T23:35:38.328Z,89.41
2017-11-14T23:38:06.617Z,89.91
2017-11-14T23:40:34.895Z,90.18
2017-11-14T23:43:03.407Z,89.50
2017-11-14T23:45:31.683Z,89.47
2017-11-14T23:47:59.966Z,89.01
2017-11-14T23:50:28.242Z,88.93
2017-11-14T23:52:56.530Z,88.49
2017-11-14T23:55:24.821Z,88.03
2017-11-14T23:57:53.128Z,88.37
